createdAt,value
2022-08-18T00:01:15.850Z,13.45
2022-08-18T00:04:03.275Z,16.02
2022-08-18T00:06:49.078Z,16.80
2022-08-18T00:09:36.608Z,13.23
2022-08-18T00:12:33.369Z,13.45
2022-08-18T00:15:19.499Z,19.20
2022-08-18T00:18:05.009Z,13.75
2022-08-18T00:20:50.678Z,14.73
2022-08-18T00:23:36.064Z,15.00
2022-08-18T00:26:22.434Z,13.05
2022-08-18T00:29:07.730Z,16.35
2022-08-18T00:31:53.186Z,9.95
2022-08-18T00:34:38.545Z,11.25
2022-08-18T00:37:24.975Z,15.95
2022-08-18T00:40:17.900Z,13.63
2022-08-18T00:43:06.208Z,11.13
2022-08-18T00:45:52.816Z,13.68
2022-08-18T00:48:38.457Z,14.95
2022-08-18T00:51:27.728Z,14.93
2022-08-18T00:54:24.154Z,20.23
2022-08-18T00:57:09.558Z,12.98
2022-08-18T01:00:05.628Z,12.40
2022-08-18T01:02:56.029Z,13.57
2022-08-18T01:06:06.597Z,16.92
2022-08-18T01:08:51.967Z,16.55
2022-08-18T01:11:39.454Z,11.88
2022-08-18T01:14:25.116Z,13.63
2022-08-18T01:17:28.887Z,12.98
2022-08-18T01:20:39.924Z,15.23
2022-08-18T01:23:26.180Z,15.27
2022-08-18T01:26:13.125Z,12.30
2022-08-18T01:29:06.056Z,15.18
2022-08-18T01:31:57.037Z,13.30
2022-08-18T01:34:42.561Z,15.23
2022-08-18T01:37:29.280Z,16.55
2022-08-18T01:41:17.648Z,23.17
2022-08-18T01:43:23.016Z,13.77
2022-08-18T01:46:09.053Z,11.95
2022-08-18T01:48:54.976Z,15.57
2022-08-18T01:51:42.687Z,21.30
2022-08-18T01:54:30.131Z,51.90
2022-08-18T01:57:17.672Z,37.85
2022-08-18T02:00:04.402Z,32.70
2022-08-18T02:03:02.060Z,42.72
2022-08-18T02:05:50.882Z,37.53
2022-08-18T02:08:38.237Z,63.53
2022-08-18T02:11:27.251Z,45.17
2022-08-18T02:14:12.716Z,65.32
2022-08-18T02:17:01.762Z,52.78
2022-08-18T02:19:48.413Z,51.45
2022-08-18T02:22:33.808Z,60.55
2022-08-18T02:25:19.820Z,68.82
2022-08-18T02:28:05.865Z,43.30
2022-08-18T02:30:51.702Z,41.95
2022-08-18T02:33:38.118Z,33.47
2022-08-18T02:36:25.310Z,53.65
2022-08-18T02:39:11.793Z,35.78
2022-08-18T02:41:57.130Z,31.55
2022-08-18T02:44:42.774Z,23.83
2022-08-18T02:47:33.416Z,15.30
2022-08-18T02:50:19.313Z,14.13
2022-08-18T02:53:05.018Z,29.73
2022-08-18T02:55:50.924Z,28.90
2022-08-18T02:58:36.416Z,22.63
2022-08-18T03:01:34.754Z,22.25
2022-08-18T03:04:28.554Z,27.88
2022-08-18T03:07:15.092Z,25.83
2022-08-18T03:10:31.745Z,16.67
2022-08-18T03:13:06.087Z,14.18
2022-08-18T03:15:56.561Z,33.20
2022-08-18T03:18:42.853Z,28.15
2022-08-18T03:21:31.043Z,21.17
2022-08-18T03:24:22.985Z,24.13
2022-08-18T03:27:09.133Z,44.22
2022-08-18T03:29:54.910Z,45.03
2022-08-18T03:32:40.529Z,26.38
2022-08-18T03:35:31.417Z,49.33
2022-08-18T03:38:16.864Z,23.85
2022-08-18T03:41:02.239Z,37.25
2022-08-18T03:43:49.777Z,39.83
2022-08-18T03:46:37.396Z,39.25
2022-08-18T03:49:23.394Z,43.78
2022-08-18T03:52:10.300Z,56.00
2022-08-18T03:54:55.916Z,44.85
2022-08-18T03:57:45.748Z,23.60
2022-08-18T04:00:32.085Z,66.03
2022-08-18T04:03:17.805Z,47.67
2022-08-18T04:06:03.936Z,40.90
2022-08-18T04:08:55.056Z,29.23
2022-08-18T04:11:43.362Z,26.42
2022-08-18T04:14:32.723Z,22.38
2022-08-18T04:17:24.724Z,45.50
2022-08-18T04:22:57.220Z,26.95
2022-08-18T04:25:42.454Z,32.50
2022-08-18T04:28:29.095Z,35.70
2022-08-18T04:31:15.769Z,31.60
2022-08-18T04:34:03.470Z,18.08
2022-08-18T04:36:54.047Z,22.33
2022-08-18T04:39:39.567Z,14.10
2022-08-18T04:42:24.804Z,16.52
2022-08-18T04:45:10.473Z,13.43
2022-08-18T04:47:55.940Z,13.00
2022-08-18T04:50:42.192Z,13.30
2022-08-18T04:53:46.343Z,12.50
2022-08-18T04:56:36.915Z,12.05
2022-08-18T04:59:22.590Z,14.75
2022-08-18T05:02:14.510Z,14.30
2022-08-18T05:05:03.436Z,13.27
2022-08-18T05:07:49.326Z,10.77
2022-08-18T05:10:35.639Z,16.77
2022-08-18T05:13:21.660Z,12.20
2022-08-18T05:16:11.878Z,13.13
2022-08-18T05:19:11.560Z,12.32
2022-08-18T05:21:59.809Z,15.73
2022-08-18T05:24:47.087Z,13.82
2022-08-18T05:27:35.360Z,10.35
2022-08-18T05:30:21.511Z,10.32
2022-08-18T05:33:10.216Z,11.73
2022-08-18T05:36:05.305Z,10.18
2022-08-18T05:39:15.207Z,8.98
2022-08-18T05:42:18.967Z,9.30
2022-08-18T05:45:11.281Z,10.30
2022-08-18T05:48:00.592Z,11.15
2022-08-18T05:50:46.556Z,8.88
2022-08-18T05:53:51.225Z,11.60
2022-08-18T05:56:48.520Z,14.00
2022-08-18T05:59:37.388Z,8.93
2022-08-18T06:02:29.155Z,8.90
2022-08-18T06:08:16.187Z,7.53
2022-08-18T06:11:01.897Z,7.68
2022-08-18T06:13:47.320Z,8.20
2022-08-18T06:16:41.693Z,7.13
2022-08-18T06:19:33.500Z,8.02
2022-08-18T06:22:21.998Z,8.38
2022-08-18T06:25:21.931Z,8.85
2022-08-18T06:28:13.579Z,8.52
2022-08-18T06:31:27.412Z,8.52
2022-08-18T06:34:14.888Z,8.43
2022-08-18T06:37:28.611Z,15.25
2022-08-18T06:40:14.256Z,8.65
2022-08-18T06:43:02.153Z,8.65
2022-08-18T06:45:51.625Z,14.75
2022-08-18T06:48:43.789Z,12.27
2022-08-18T06:51:30.111Z,9.75
2022-08-18T06:54:21.748Z,8.40
2022-08-18T06:57:28.272Z,8.45
2022-08-18T07:00:17.289Z,7.82
2022-08-18T07:03:11.852Z,9.38
2022-08-18T07:06:24.801Z,9.00
2022-08-18T07:09:24.292Z,9.73
2022-08-18T07:12:11.128Z,10.10
2022-08-18T07:15:02.731Z,9.80
2022-08-18T07:20:59.932Z,8.65
2022-08-18T07:24:23.225Z,10.60
2022-08-18T07:27:17.763Z,7.60
2022-08-18T07:30:33.637Z,12.55
2022-08-18T07:33:26.261Z,7.90
2022-08-18T07:36:14.781Z,8.05
2022-08-18T07:39:14.160Z,11.90
2022-08-18T07:42:08.507Z,10.55
2022-08-18T07:45:00.781Z,6.97
2022-08-18T07:47:55.159Z,6.85
2022-08-18T07:51:00.784Z,10.88
2022-08-18T07:54:00.939Z,10.05
2022-08-18T07:57:00.079Z,8.93
2022-08-18T08:00:20.607Z,7.45
2022-08-18T08:03:41.365Z,6.97
2022-08-18T08:06:30.002Z,6.57
2022-08-18T08:09:52.959Z,5.53
2022-08-18T08:13:09.178Z,5.90
2022-08-18T08:16:19.995Z,9.13
2022-08-18T08:19:49.283Z,8.15
2022-08-18T08:22:53.355Z,7.35
2022-08-18T08:25:53.490Z,8.50
2022-08-18T08:28:46.839Z,5.82
2022-08-18T08:31:53.607Z,8.95
2022-08-18T08:34:58.095Z,10.02
2022-08-18T08:38:08.232Z,10.48
2022-08-18T08:41:20.217Z,7.25
2022-08-18T08:44:13.860Z,13.02
2022-08-18T08:47:03.723Z,6.03
2022-08-18T08:50:00.326Z,8.05
2022-08-18T08:52:57.303Z,6.25
2022-08-18T08:55:50.688Z,6.65
2022-08-18T08:58:41.548Z,7.50
2022-08-18T09:01:38.202Z,9.85
2022-08-18T09:04:32.050Z,9.07
2022-08-18T09:07:45.681Z,7.65
2022-08-18T09:10:57.334Z,7.05
2022-08-18T09:16:48.253Z,5.93
2022-08-18T09:20:12.432Z,5.43
2022-08-18T09:23:06.175Z,7.70
2022-08-18T09:25:57.156Z,8.55
2022-08-18T09:29:01.773Z,6.25
2022-08-18T09:31:47.070Z,8.43
2022-08-18T09:34:51.369Z,9.32
2022-08-18T09:38:13.482Z,9.05
2022-08-18T09:41:33.145Z,5.65
2022-08-18T09:44:51.551Z,7.68
2022-08-18T09:47:37.485Z,10.73
2022-08-18T09:50:28.725Z,8.70
2022-08-18T09:53:47.947Z,6.45
2022-08-18T10:00:03.867Z,7.28
2022-08-18T10:02:54.292Z,8.15
2022-08-18T10:05:54.937Z,10.32
2022-08-18T10:08:59.720Z,5.57
2022-08-18T10:15:32.809Z,11.70
2022-08-18T10:19:04.984Z,12.15
2022-08-18T10:21:56.548Z,10.52
2022-08-18T10:25:09.222Z,7.03
2022-08-18T10:28:10.300Z,11.30
2022-08-18T10:31:09.817Z,7.13
2022-08-18T10:34:18.447Z,11.15
2022-08-18T10:37:21.452Z,9.85
2022-08-18T10:40:15.052Z,7.78
2022-08-18T10:43:46.335Z,6.65
2022-08-18T10:46:33.438Z,6.25
2022-08-18T10:49:27.984Z,8.57
2022-08-18T10:52:40.283Z,8.88
2022-08-18T10:55:50.008Z,4.97
2022-08-18T10:58:51.172Z,8.63
2022-08-18T11:02:15.582Z,7.87
2022-08-18T11:08:20.049Z,6.30
2022-08-18T11:11:34.442Z,9.93
2022-08-18T11:14:51.148Z,6.50
2022-08-18T11:18:10.503Z,4.82
2022-08-18T11:21:22.416Z,8.57
2022-08-18T11:24:29.692Z,13.38
2022-08-18T11:27:25.325Z,9.50
2022-08-18T11:30:12.123Z,7.35
2022-08-18T11:36:07.285Z,9.02
2022-08-18T11:38:55.422Z,6.20
2022-08-18T11:41:48.228Z,7.35
2022-08-18T11:44:39.128Z,5.40
2022-08-18T11:47:27.765Z,7.43
2022-08-18T11:50:28.369Z,9.40
2022-08-18T11:53:38.723Z,9.20
2022-08-18T11:56:35.682Z,10.80
2022-08-18T12:02:32.396Z,7.05
2022-08-18T12:05:19.065Z,5.25
2022-08-18T12:08:50.690Z,9.63
2022-08-18T12:11:36.350Z,8.35
2022-08-18T12:17:37.960Z,6.82
2022-08-18T12:20:24.140Z,11.30
2022-08-18T12:23:10.559Z,8.50
2022-08-18T12:25:59.480Z,9.75
2022-08-18T12:28:45.844Z,8.57
2022-08-18T12:31:42.660Z,5.95
2022-08-18T12:34:34.114Z,5.13
2022-08-18T12:37:57.559Z,4.93
2022-08-18T12:40:31.619Z,6.25
2022-08-18T12:43:17.786Z,6.90
2022-08-18T12:46:06.739Z,14.68
2022-08-18T12:48:58.445Z,5.70
2022-08-18T12:51:45.657Z,8.15
2022-08-18T12:54:36.672Z,10.98
2022-08-18T13:00:48.384Z,6.20
2022-08-18T13:03:37.958Z,5.30
2022-08-18T13:06:36.670Z,7.75
2022-08-18T13:09:34.672Z,12.25
2022-08-18T13:12:29.237Z,6.18
2022-08-18T13:15:15.731Z,6.80
2022-08-18T13:18:02.730Z,6.78
2022-08-18T13:20:51.302Z,5.10
2022-08-18T13:23:38.993Z,5.32
2022-08-18T13:26:30.812Z,10.13
2022-08-18T13:29:18.580Z,5.57
2022-08-18T13:32:09.316Z,5.63
2022-08-18T13:35:02.662Z,7.72
2022-08-18T13:37:55.988Z,12.05
2022-08-18T13:40:46.980Z,12.27
2022-08-18T13:43:37.815Z,9.90
2022-08-18T13:46:31.222Z,10.05
2022-08-18T13:49:24.056Z,7.20
2022-08-18T13:52:34.770Z,4.43
2022-08-18T13:55:32.078Z,9.23
2022-08-18T13:58:20.893Z,4.78
2022-08-18T14:01:42.607Z,9.45
2022-08-18T14:04:20.199Z,11.43
2022-08-18T14:07:10.405Z,7.13
2022-08-18T14:09:57.957Z,4.72
2022-08-18T14:12:46.471Z,6.22
2022-08-18T14:15:36.400Z,11.65
2022-08-18T14:18:28.592Z,6.85
2022-08-18T14:21:34.368Z,4.93
2022-08-18T14:24:43.427Z,4.60
2022-08-18T14:27:39.051Z,6.30
2022-08-18T14:30:27.404Z,4.35
2022-08-18T14:36:09.381Z,6.55
2022-08-18T14:38:57.797Z,27.17
2022-08-18T14:41:54.535Z,4.40
2022-08-18T14:44:42.127Z,4.90
2022-08-18T14:47:33.483Z,5.78
2022-08-18T14:50:25.671Z,4.65
2022-08-18T14:53:14.438Z,16.55
2022-08-18T14:56:01.156Z,7.15
2022-08-18T14:58:50.667Z,6.18
2022-08-18T15:01:42.489Z,5.60
2022-08-18T15:04:28.619Z,7.78
2022-08-18T15:07:18.259Z,9.40
2022-08-18T15:10:14.924Z,13.02
2022-08-18T15:13:02.372Z,7.30
2022-08-18T15:15:51.228Z,6.97
2022-08-18T15:18:38.878Z,7.20
2022-08-18T15:21:49.040Z,5.65
2022-08-18T15:24:58.611Z,7.13
2022-08-18T15:27:46.069Z,9.60
2022-08-18T15:30:40.113Z,5.57
2022-08-18T15:33:32.309Z,5.07
2022-08-18T15:36:29.136Z,10.52
2022-08-18T15:39:16.321Z,7.25
2022-08-18T15:42:11.130Z,10.75
2022-08-18T15:45:11.831Z,9.52
2022-08-18T15:47:59.703Z,7.78
2022-08-18T15:50:51.588Z,5.25
2022-08-18T15:53:39.995Z,10.30
2022-08-18T15:56:31.776Z,4.60
2022-08-18T15:59:18.216Z,8.93
2022-08-18T16:02:11.645Z,7.03
2022-08-18T16:05:09.095Z,4.78
2022-08-18T16:07:59.515Z,7.50
2022-08-18T16:10:47.075Z,5.53
2022-08-18T16:13:33.576Z,5.53
2022-08-18T16:16:29.066Z,6.47
2022-08-18T16:19:25.718Z,12.45
2022-08-18T16:22:16.961Z,7.38
2022-08-18T16:25:08.108Z,8.45
2022-08-18T16:27:56.374Z,8.40
2022-08-18T16:30:43.258Z,8.07
2022-08-18T16:33:31.503Z,8.38
2022-08-18T16:36:21.147Z,10.77
2022-08-18T16:39:08.296Z,11.80
2022-08-18T16:41:56.265Z,13.20
2022-08-18T16:44:44.440Z,16.70
2022-08-18T16:47:37.947Z,7.60
2022-08-18T16:50:25.440Z,9.65
2022-08-18T16:53:11.242Z,9.90
2022-08-18T16:55:57.033Z,11.82
2022-08-18T16:59:01.416Z,7.82
2022-08-18T17:02:05.631Z,10.80
2022-08-18T17:04:52.123Z,5.93
2022-08-18T17:07:38.504Z,9.23
2022-08-18T17:10:25.253Z,9.32
2022-08-18T17:13:12.844Z,9.63
2022-08-18T17:15:58.804Z,8.90
2022-08-18T17:18:45.286Z,11.68
2022-08-18T17:24:31.092Z,9.45
2022-08-18T17:27:27.689Z,15.73
2022-08-18T17:30:24.012Z,13.38
2022-08-18T17:33:15.649Z,12.25
2022-08-18T17:36:08.758Z,10.50
2022-08-18T17:38:58.912Z,13.55
2022-08-18T17:42:04.678Z,13.35
2022-08-18T17:44:54.196Z,11.55
2022-08-18T17:48:13.561Z,13.00
2022-08-18T17:51:27.323Z,10.90
2022-08-18T17:54:27.615Z,8.15
2022-08-18T17:57:35.130Z,9.15
2022-08-18T18:00:22.013Z,7.20
2022-08-18T18:03:09.048Z,10.15
2022-08-18T18:06:09.083Z,8.13
2022-08-18T18:09:32.231Z,9.98
2022-08-18T18:12:25.980Z,9.02
2022-08-18T18:15:35.287Z,10.07
2022-08-18T18:18:43.052Z,6.10
2022-08-18T18:21:58.881Z,11.48
2022-08-18T18:24:41.248Z,12.60
2022-08-18T18:27:47.444Z,8.25
2022-08-18T18:30:37.036Z,13.45
2022-08-18T18:33:24.336Z,11.02
2022-08-18T18:36:13.911Z,13.15
2022-08-18T18:39:20.250Z,9.90
2022-08-18T18:42:19.692Z,7.28
2022-08-18T18:45:13.848Z,9.52
2022-08-18T18:48:48.158Z,13.50
2022-08-18T18:51:50.898Z,12.35
2022-08-18T18:54:39.777Z,8.23
2022-08-18T18:57:54.158Z,9.85
2022-08-18T19:00:55.764Z,9.77
2022-08-18T19:03:49.908Z,15.40
2022-08-18T19:06:56.199Z,10.68
2022-08-18T19:09:50.514Z,10.77
2022-08-18T19:12:50.048Z,16.77
2022-08-18T19:15:38.601Z,10.45
2022-08-18T19:18:38.753Z,10.27
2022-08-18T19:22:04.308Z,8.10
2022-08-18T19:24:43.189Z,8.55
2022-08-18T19:27:36.951Z,11.93
2022-08-18T19:30:23.149Z,6.30
2022-08-18T19:33:15.983Z,11.32
2022-08-18T19:36:29.838Z,7.13
2022-08-18T19:39:22.708Z,12.10
2022-08-18T19:42:26.622Z,13.60
2022-08-18T19:45:30.186Z,18.90
2022-08-18T19:48:22.326Z,14.18
2022-08-18T19:51:32.153Z,10.05
2022-08-18T19:54:21.055Z,9.63
2022-08-18T19:57:25.767Z,21.67
2022-08-18T20:01:02.434Z,12.65
2022-08-18T20:04:11.397Z,10.65
2022-08-18T20:07:38.364Z,10.60
2022-08-18T20:10:27.123Z,8.95
2022-08-18T20:13:25.489Z,7.95
2022-08-18T20:16:43.459Z,9.98
2022-08-18T20:19:49.748Z,6.57
2022-08-18T20:22:57.324Z,6.50
2022-08-18T20:25:49.240Z,8.82
2022-08-18T20:28:40.042Z,13.27
2022-08-18T20:32:03.407Z,14.05
2022-08-18T20:34:51.592Z,9.45
2022-08-18T20:37:37.328Z,6.50
2022-08-18T20:40:45.818Z,14.82
2022-08-18T20:43:35.806Z,5.85
2022-08-18T20:46:43.298Z,7.93
2022-08-18T20:49:50.971Z,9.05
2022-08-18T20:52:48.716Z,10.60
2022-08-18T20:55:38.325Z,13.13
2022-08-18T20:58:36.237Z,6.60
2022-08-18T21:01:25.669Z,7.18
2022-08-18T21:04:12.379Z,9.60
2022-08-18T21:06:58.577Z,7.45
2022-08-18T21:10:12.134Z,9.13
2022-08-18T21:13:06.688Z,7.28
2022-08-18T21:15:52.645Z,9.73
2022-08-18T21:18:40.460Z,6.45
2022-08-18T21:21:33.522Z,9.50
2022-08-18T21:24:33.026Z,7.45
2022-08-18T21:27:30.226Z,10.98
2022-08-18T21:30:22.587Z,9.10
2022-08-18T21:33:20.313Z,9.13
2022-08-18T21:36:13.408Z,7.88
2022-08-18T21:39:06.381Z,5.40
2022-08-18T21:41:55.147Z,9.68
2022-08-18T21:44:44.570Z,11.68
2022-08-18T21:47:34.039Z,13.98
2022-08-18T21:50:28.547Z,7.75
2022-08-18T21:53:23.840Z,9.25
2022-08-18T21:56:23.452Z,10.50
2022-08-18T21:59:12.561Z,8.20
2022-08-18T22:01:57.968Z,7.97
2022-08-18T22:04:47.298Z,9.20
2022-08-18T22:07:35.650Z,9.35
2022-08-18T22:10:54.351Z,5.50
2022-08-18T22:13:58.476Z,8.68
2022-08-18T22:16:45.266Z,8.77
2022-08-18T22:19:30.774Z,5.60
2022-08-18T22:22:37.097Z,6.03
2022-08-18T22:25:24.148Z,6.43
2022-08-18T22:28:09.480Z,6.85
2022-08-18T22:30:54.779Z,9.25
2022-08-18T22:33:40.475Z,7.65
2022-08-18T22:36:28.391Z,11.25
2022-08-18T22:39:18.283Z,5.07
2022-08-18T22:42:05.213Z,4.72
2022-08-18T22:44:51.027Z,10.30
2022-08-18T22:47:42.931Z,4.68
2022-08-18T22:50:30.693Z,7.85
2022-08-18T22:53:17.601Z,11.23
2022-08-18T22:56:05.979Z,5.68
2022-08-18T22:58:54.061Z,9.95
2022-08-18T23:01:40.241Z,8.48
2022-08-18T23:04:27.617Z,11.55
2022-08-18T23:07:13.455Z,6.07
2022-08-18T23:09:59.096Z,5.30
2022-08-18T23:12:46.884Z,4.63
2022-08-18T23:15:47.679Z,11.35
2022-08-18T23:18:33.250Z,12.07
2022-08-18T23:21:34.946Z,5.57
2022-08-18T23:24:22.298Z,5.78
2022-08-18T23:27:07.844Z,6.55
2022-08-18T23:29:53.500Z,9.98
2022-08-18T23:32:38.973Z,10.05
2022-08-18T23:35:25.140Z,5.10
2022-08-18T23:38:13.095Z,4.30
2022-08-18T23:40:59.097Z,5.53
2022-08-18T23:43:48.250Z,6.85
2022-08-18T23:46:35.062Z,8.25
2022-08-18T23:49:20.971Z,4.18
2022-08-18T23:52:06.557Z,4.68
2022-08-18T23:54:51.959Z,7.78
2022-08-18T23:57:37.346Z,7.22
